Time;durP1;ratioP1;P1;durP2;ratioP2;P2;SDS_P1;SDS_P2;PMS_P1;PMS_P2;Temp;Humidity;BMP_temperature;BMP_pressure;BME280_temperature;BME280_humidity;BME280_pressure;Samples;Min_cycle;Max_cycle;Signal;HPM_P1;HPM_P2
2022/01/18 00:00:24;;;;;;;40.00;21.15;;;4.60;99.90;;;;;;5011597;28;20022;-62
2022/01/18 00:02:50;;;;;;;45.72;22.23;;;4.70;99.90;;;;;;5011298;28;20040;-62
2022/01/18 00:05:16;;;;;;;48.00;21.50;;;4.60;99.90;;;;;;5011592;28;20210;-62
2022/01/18 00:07:43;;;;;;;54.60;22.92;;;4.60;99.90;;;;;;5011258;28;20022;-62
2022/01/18 00:10:10;;;;;;;56.20;24.50;;;4.60;99.90;;;;;;5010106;28;20398;-62
2022/01/18 00:17:53;;;;;;;45.97;22.08;;;4.70;99.90;;;;;;5011229;28;20018;-63
2022/01/18 00:20:34;;;;;;;57.90;22.48;;;4.60;99.90;;;;;;5011540;28;20026;-62
2022/01/18 00:23:00;;;;;;;52.97;23.58;;;4.70;99.90;;;;;;5011083;28;20034;-63
2022/01/18 00:25:25;;;;;;;55.45;24.10;;;4.80;99.90;;;;;;5010168;28;20032;-62
2022/01/18 00:27:51;;;;;;;35.95;20.33;;;4.90;99.90;;;;;;5010931;28;20099;-62
2022/01/18 00:35:35;;;;;;;36.72;18.10;;;4.60;99.90;;;;;;5015091;28;20033;-62
2022/01/18 00:38:02;;;;;;;36.83;18.08;;;4.30;99.90;;;;;;5016998;28;20022;-62
2022/01/18 00:40:28;;;;;;;40.10;18.70;;;4.30;99.90;;;;;;5017233;28;20014;-62
2022/01/18 00:42:54;;;;;;;45.47;18.80;;;4.30;99.90;;;;;;5017041;28;20060;-62
2022/01/18 00:45:20;;;;;;;39.60;19.50;;;4.20;99.90;;;;;;5017474;28;20026;-62
2022/01/18 00:47:46;;;;;;;39.00;19.75;;;4.30;99.90;;;;;;5017007;28;20025;-62
2022/01/18 00:50:12;;;;;;;34.72;19.17;;;4.40;99.90;;;;;;5016923;28;20112;-62
2022/01/18 00:52:42;;;;;;;32.30;18.08;;;4.30;99.90;;;;;;5017223;28;20531;-62
2022/01/18 00:55:08;;;;;;;38.58;18.42;;;4.20;99.90;;;;;;5017777;28;20044;-62
2022/01/18 00:57:34;;;;;;;34.70;18.98;;;4.20;99.90;;;;;;5017059;28;20120;-62
2022/01/18 00:59:59;;;;;;;34.63;18.80;;;4.10;99.90;;;;;;5015719;28;20117;-62
2022/01/18 01:02:26;;;;;;;32.42;19.10;;;4.10;99.90;;;;;;5015544;28;20040;-62
2022/01/18 01:04:51;;;;;;;32.20;18.67;;;3.90;99.90;;;;;;5017756;28;20037;-62
2022/01/18 01:07:22;;;;;;;36.22;19.27;;;3.90;99.90;;;;;;5016561;28;20415;-62
2022/01/18 01:09:49;;;;;;;38.60;19.73;;;4.00;99.90;;;;;;5016843;28;20446;-62
2022/01/18 01:12:18;;;;;;;34.03;18.48;;;4.00;99.90;;;;;;5017476;28;20100;-62
2022/01/18 01:14:48;;;;;;;29.88;17.92;;;4.00;99.90;;;;;;5017410;28;20026;-62
2022/01/18 01:17:34;;;;;;;30.75;18.52;;;4.00;99.90;;;;;;5015962;28;20029;-62
2022/01/18 01:36:41;;;;;;;31.63;17.38;;;3.80;99.90;;;;;;5017615;28;20026;-62
2022/01/18 01:42:01;;;;;;;36.05;19.05;;;3.80;99.90;;;;;;5017074;28;20069;-62
2022/01/18 01:44:40;;;;;;;31.23;19.90;;;3.90;99.90;;;;;;5016931;28;20025;-62
2022/01/18 01:47:06;;;;;;;33.55;19.70;;;4.00;99.90;;;;;;5013952;28;20026;-62
2022/01/18 01:49:31;;;;;;;32.15;18.63;;;4.00;99.90;;;;;;5013681;28;20092;-62
2022/01/18 01:51:57;;;;;;;31.67;17.88;;;4.00;99.90;;;;;;5014015;28;20029;-62
2022/01/18 01:54:23;;;;;;;31.58;18.10;;;4.00;99.90;;;;;;5013813;28;20057;-62
2022/01/18 01:56:49;;;;;;;36.05;17.90;;;4.10;99.90;;;;;;5012088;28;20022;-62
2022/01/18 01:59:15;;;;;;;26.33;17.83;;;4.10;99.90;;;;;;5013272;28;20029;-62
2022/01/18 02:01:43;;;;;;;24.77;16.88;;;4.20;99.90;;;;;;5013024;28;20026;-62
2022/01/18 02:04:10;;;;;;;40.95;17.95;;;4.20;99.90;;;;;;5013334;28;20049;-62
2022/01/18 02:06:35;;;;;;;26.60;16.88;;;4.20;99.90;;;;;;5012895;28;20546;-62
2022/01/18 02:09:01;;;;;;;34.25;17.95;;;4.20;99.90;;;;;;5013215;28;20098;-62
2022/01/18 02:11:27;;;;;;;24.42;17.65;;;4.20;99.90;;;;;;5012882;28;20100;-62
2022/01/18 02:13:53;;;;;;;26.58;17.48;;;4.30;99.90;;;;;;5012673;28;20480;-62
2022/01/18 02:21:50;;;;;;;34.95;19.00;;;4.30;99.90;;;;;;5013652;28;20088;-62
2022/01/18 02:24:19;;;;;;;30.98;19.08;;;4.40;99.90;;;;;;5011954;28;20072;-62
2022/01/18 02:26:45;;;;;;;32.20;18.58;;;4.50;99.90;;;;;;5012456;28;20030;-62
2022/01/18 02:29:11;;;;;;;35.38;20.00;;;4.50;99.90;;;;;;5012975;28;20049;-62
2022/01/18 02:31:38;;;;;;;32.75;17.77;;;4.70;99.90;;;;;;5013072;28;20495;-62
2022/01/18 02:34:13;;;;;;;30.20;18.25;;;4.70;99.90;;;;;;5011674;28;20044;-62
2022/01/18 02:36:39;;;;;;;25.80;17.90;;;4.80;99.90;;;;;;5012588;28;20030;-62
2022/01/18 02:39:06;;;;;;;26.42;16.83;;;4.70;99.90;;;;;;5012827;28;20029;-62
2022/01/18 02:41:32;;;;;;;26.00;16.63;;;4.70;99.90;;;;;;5012722;28;20073;-61
2022/01/18 02:44:00;;;;;;;27.52;17.80;;;4.70;99.90;;;;;;5012653;28;20022;-61
2022/01/18 02:46:27;;;;;;;25.85;17.63;;;4.70;99.90;;;;;;5012420;28;20022;-61
2022/01/18 02:48:57;;;;;;;25.58;17.08;;;4.80;99.90;;;;;;5012585;28;20101;-62
2022/01/18 02:51:24;;;;;;;28.10;19.23;;;4.90;99.90;;;;;;5012598;28;20560;-61
2022/01/18 02:53:55;;;;;;;28.83;18.35;;;5.10;99.90;;;;;;5012247;28;20034;-61
2022/01/18 02:56:22;;;;;;;29.17;18.27;;;5.20;99.90;;;;;;5010767;28;20026;-62
2022/01/18 02:58:48;;;;;;;25.58;16.85;;;5.20;99.90;;;;;;5011205;28;20098;-61
2022/01/18 03:03:58;;;;;;;28.50;17.38;;;5.30;99.90;;;;;;5012094;28;20048;-62
2022/01/18 03:06:23;;;;;;;28.10;16.25;;;5.40;99.90;;;;;;5011749;28;20342;-62
2022/01/18 03:08:49;;;;;;;26.15;16.70;;;5.30;99.90;;;;;;5011860;28;20403;-62
2022/01/18 03:11:14;;;;;;;33.35;16.85;;;5.30;99.90;;;;;;5012135;28;20029;-61
2022/01/18 03:13:40;;;;;;;26.40;16.67;;;5.20;99.90;;;;;;5012112;28;20026;-62
2022/01/18 03:16:06;;;;;;;27.30;16.48;;;5.10;99.90;;;;;;5010658;28;20048;-61
2022/01/18 03:18:31;;;;;;;29.10;17.50;;;5.00;99.90;;;;;;5011830;28;20092;-61
2022/01/18 03:20:57;;;;;;;29.85;17.40;;;5.10;99.90;;;;;;5010173;28;20057;-62
2022/01/18 03:23:23;;;;;;;28.42;17.02;;;5.20;99.90;;;;;;5011899;28;20402;-63
2022/01/18 03:25:58;;;;;;;26.08;16.23;;;5.20;99.90;;;;;;5010575;28;20021;-62
2022/01/18 03:28:24;;;;;;;20.95;16.33;;;5.10;99.90;;;;;;5011601;28;20112;-62
2022/01/18 03:30:54;;;;;;;28.40;16.52;;;5.10;99.90;;;;;;5010580;28;20113;-62
2022/01/18 03:33:22;;;;;;;29.33;17.05;;;5.20;99.90;;;;;;5012137;28;20025;-62
2022/01/18 03:35:50;;;;;;;30.70;18.35;;;5.20;99.90;;;;;;5011803;28;20025;-62
2022/01/18 03:38:17;;;;;;;23.25;17.08;;;5.40;99.90;;;;;;5012062;28;20065;-62
2022/01/18 03:40:43;;;;;;;27.83;17.65;;;5.30;99.90;;;;;;5011686;28;20026;-62
2022/01/18 03:43:12;;;;;;;25.45;17.70;;;5.10;99.90;;;;;;5010650;28;20076;-62
2022/01/18 03:45:42;;;;;;;29.75;17.83;;;5.20;99.90;;;;;;5011575;28;20025;-62
2022/01/18 03:48:15;;;;;;;23.55;16.15;;;5.20;99.90;;;;;;5011554;28;20041;-62
2022/01/18 03:50:41;;;;;;;26.23;16.60;;;5.20;99.90;;;;;;5011994;28;20030;-62
2022/01/18 03:53:10;;;;;;;28.15;17.50;;;5.20;99.90;;;;;;5011467;28;20315;-62
2022/01/18 03:55:36;;;;;;;26.42;17.10;;;5.20;99.90;;;;;;5010592;28;20025;-62
2022/01/18 03:58:01;;;;;;;24.73;17.13;;;5.30;99.90;;;;;;5011566;28;20029;-62
2022/01/18 04:00:28;;;;;;;25.08;17.10;;;5.30;99.90;;;;;;5011381;28;20021;-62
2022/01/18 04:02:54;;;;;;;24.05;16.02;;;5.30;99.90;;;;;;5011502;28;20030;-62
2022/01/18 04:05:21;;;;;;;18.10;14.88;;;5.30;99.90;;;;;;5010276;28;20026;-61
2022/01/18 04:07:48;;;;;;;23.38;15.60;;;5.30;99.90;;;;;;5011227;28;20026;-61
2022/01/18 04:10:14;;;;;;;20.77;14.73;;;5.20;99.90;;;;;;5011121;28;20037;-62
2022/01/18 04:12:40;;;;;;;16.35;14.02;;;5.20;99.90;;;;;;5011042;28;20065;-62
2022/01/18 04:15:11;;;;;;;19.63;14.55;;;5.20;99.90;;;;;;5011325;28;20127;-62
2022/01/18 04:25:53;;;;;;;20.30;15.55;;;5.10;99.90;;;;;;5011238;28;20517;-62
2022/01/18 04:28:42;;;;;;;19.60;14.68;;;5.20;99.90;;;;;;5009423;28;20533;-62
2022/01/18 04:31:09;;;;;;;24.33;14.65;;;5.10;99.90;;;;;;5011346;28;20573;-62
2022/01/18 04:33:36;;;;;;;20.55;14.68;;;5.10;99.90;;;;;;5011215;28;20041;-62
2022/01/18 04:36:03;;;;;;;18.45;14.45;;;5.10;99.90;;;;;;5010798;28;20026;-62
2022/01/18 04:38:29;;;;;;;18.92;15.10;;;5.00;99.90;;;;;;5011108;28;20026;-62
2022/01/18 04:41:00;;;;;;;19.48;14.90;;;5.00;99.90;;;;;;5009760;28;20030;-62
2022/01/18 04:43:42;;;;;;;18.85;15.18;;;5.00;99.90;;;;;;5011349;28;20050;-62
2022/01/18 04:48:52;;;;;;;21.25;15.73;;;5.00;99.90;;;;;;5011336;28;20450;-61
2022/01/18 04:51:18;;;;;;;20.27;15.68;;;5.10;99.90;;;;;;5009536;28;20053;-61
2022/01/18 04:53:50;;;;;;;20.70;16.70;;;5.20;99.90;;;;;;5011210;28;20089;-61
2022/01/18 04:56:19;;;;;;;18.55;15.75;;;5.20;99.90;;;;;;5011258;28;20038;-61
2022/01/18 04:58:45;;;;;;;23.98;17.45;;;5.20;99.90;;;;;;5010917;28;20026;-62
2022/01/18 05:01:12;;;;;;;24.52;17.33;;;5.40;99.90;;;;;;5010732;28;20026;-62
2022/01/18 05:03:38;;;;;;;22.45;16.45;;;5.40;99.90;;;;;;5010288;28;20041;-62
2022/01/18 05:06:09;;;;;;;19.48;15.85;;;5.40;99.90;;;;;;5009361;28;20037;-62
2022/01/18 05:08:36;;;;;;;21.20;16.02;;;5.30;99.90;;;;;;5010590;28;20108;-62
2022/01/18 05:11:03;;;;;;;23.98;16.25;;;5.40;99.90;;;;;;5010107;28;20025;-62
2022/01/18 05:16:41;;;;;;;20.25;16.55;;;5.50;99.90;;;;;;5010897;28;20022;-62
2022/01/18 05:19:09;;;;;;;21.58;16.77;;;5.40;99.90;;;;;;5009173;28;20030;-62
2022/01/18 05:24:07;;;;;;;21.52;16.30;;;5.40;99.90;;;;;;5013485;28;20054;-62
2022/01/18 05:26:33;;;;;;;21.92;15.45;;;5.40;99.90;;;;;;5014123;28;20067;-62
2022/01/18 05:28:59;;;;;;;22.92;18.35;;;5.30;99.90;;;;;;5013682;28;20038;-62
2022/01/18 05:31:25;;;;;;;23.90;18.40;;;5.30;99.90;;;;;;5014311;28;20033;-62
2022/01/18 05:33:51;;;;;;;25.02;18.10;;;5.20;99.90;;;;;;5013359;28;20049;-62
2022/01/18 05:36:17;;;;;;;20.52;16.88;;;5.20;99.90;;;;;;5012926;28;20018;-62
2022/01/18 05:38:42;;;;;;;21.00;17.40;;;5.10;99.90;;;;;;5013935;28;20553;-62
2022/01/18 05:41:10;;;;;;;24.48;16.23;;;5.10;99.90;;;;;;5013740;28;20589;-62
2022/01/18 05:43:37;;;;;;;21.45;17.23;;;5.10;99.90;;;;;;5013837;28;20038;-61
2022/01/18 05:46:03;;;;;;;25.48;18.20;;;5.10;99.90;;;;;;5013811;28;20144;-61
2022/01/18 05:48:29;;;;;;;21.38;17.50;;;5.20;99.90;;;;;;5012247;28;20034;-61
2022/01/18 05:50:59;;;;;;;23.33;19.33;;;5.10;99.90;;;;;;5013567;28;20455;-62
2022/01/18 05:53:29;;;;;;;22.48;18.77;;;5.10;99.90;;;;;;5012350;28;20588;-62
2022/01/18 05:55:54;;;;;;;22.17;17.33;;;5.10;99.90;;;;;;5013315;28;20022;-62
2022/01/18 05:58:20;;;;;;;23.85;17.55;;;5.10;99.90;;;;;;5013700;28;20140;-62
2022/01/18 06:00:52;;;;;;;22.40;18.10;;;5.00;99.90;;;;;;5014115;28;20022;-62
2022/01/18 06:03:27;;;;;;;21.33;18.20;;;5.00;99.90;;;;;;5013799;28;20014;-62
2022/01/18 06:08:40;;;;;;;32.45;19.00;;;5.00;99.90;;;;;;5013546;28;20501;-62
2022/01/18 06:11:06;;;;;;;29.17;20.35;;;5.00;99.90;;;;;;5013335;28;20018;-62
2022/01/18 06:13:31;;;;;;;31.63;20.02;;;5.10;99.90;;;;;;5013322;28;20065;-62
2022/01/18 06:15:57;;;;;;;29.38;21.67;;;5.20;99.90;;;;;;5013170;28;20045;-62
2022/01/18 06:18:23;;;;;;;32.03;22.52;;;5.50;99.90;;;;;;5013098;28;20092;-62
2022/01/18 06:20:48;;;;;;;27.20;20.80;;;5.50;99.90;;;;;;5013142;28;20026;-62
2022/01/18 06:23:14;;;;;;;28.23;22.30;;;5.50;99.90;;;;;;5013158;28;20030;-62
2022/01/18 06:25:41;;;;;;;30.20;22.60;;;5.50;99.90;;;;;;5011788;28;20037;-62
2022/01/18 06:28:08;;;;;;;36.17;21.38;;;5.80;99.90;;;;;;5012950;28;20045;-62
2022/01/18 06:30:33;;;;;;;30.13;22.02;;;5.70;99.90;;;;;;5012536;28;20226;-62
2022/01/18 06:33:00;;;;;;;28.80;21.30;;;5.60;99.90;;;;;;5013052;28;20041;-62
2022/01/18 06:35:26;;;;;;;32.42;20.50;;;5.50;99.90;;;;;;5012668;28;20044;-62
2022/01/18 06:37:51;;;;;;;30.33;19.98;;;5.50;99.90;;;;;;5013345;28;20022;-62
2022/01/18 06:40:17;;;;;;;26.58;20.30;;;5.50;99.90;;;;;;5012105;28;20119;-63
2022/01/18 06:42:43;;;;;;;26.73;20.75;;;5.50;99.90;;;;;;5016103;28;20497;-62
2022/01/18 06:45:09;;;;;;;27.77;20.83;;;5.60;99.90;;;;;;5019536;28;20510;-63
2022/01/18 06:47:36;;;;;;;33.65;21.25;;;5.60;99.90;;;;;;5026145;28;20398;-62
2022/01/18 06:50:02;;;;;;;28.73;21.38;;;5.70;99.90;;;;;;5017689;28;20036;-62
2022/01/18 06:52:28;;;;;;;27.95;21.08;;;5.70;99.90;;;;;;5010759;28;20053;-62
2022/01/18 06:54:54;;;;;;;28.77;20.73;;;5.70;99.90;;;;;;5020491;28;20032;-62
2022/01/18 06:57:19;;;;;;;29.40;20.38;;;5.60;99.90;;;;;;5019006;28;20095;-63
2022/01/18 06:59:45;;;;;;;26.88;19.52;;;5.60;99.90;;;;;;5018272;28;20025;-62
2022/01/18 07:02:10;;;;;;;33.92;21.83;;;5.50;99.90;;;;;;5021459;28;20031;-62
2022/01/18 07:04:36;;;;;;;28.25;19.33;;;5.60;99.90;;;;;;5016627;28;20026;-62
2022/01/18 07:07:02;;;;;;;28.05;21.05;;;5.60;99.90;;;;;;5016632;28;20037;-62
2022/01/18 07:09:28;;;;;;;38.00;22.13;;;5.50;99.90;;;;;;5017997;28;20111;-62
2022/01/18 07:11:56;;;;;;;35.83;22.13;;;5.50;99.90;;;;;;5012598;28;20164;-62
2022/01/18 07:14:23;;;;;;;29.83;21.67;;;5.50;99.90;;;;;;5021011;28;20045;-62
2022/01/18 07:16:49;;;;;;;33.67;21.65;;;5.60;99.90;;;;;;5022172;28;20094;-62
2022/01/18 07:19:15;;;;;;;35.85;22.73;;;5.60;99.90;;;;;;5015845;28;20030;-62
2022/01/18 07:21:41;;;;;;;34.42;22.92;;;5.80;99.90;;;;;;5015970;28;20033;-62
2022/01/18 07:24:17;;;;;;;28.85;20.23;;;5.80;99.90;;;;;;5016269;28;20676;-62
2022/01/18 07:26:43;;;;;;;27.45;17.77;;;5.80;99.90;;;;;;5016173;28;20112;-62
2022/01/18 07:29:09;;;;;;;28.23;20.48;;;5.70;99.90;;;;;;5019492;28;20045;-62
2022/01/18 07:31:35;;;;;;;31.33;19.98;;;5.80;99.90;;;;;;5011451;28;20036;-62
2022/01/18 07:34:01;;;;;;;30.30;20.23;;;5.70;99.90;;;;;;5019111;28;20052;-62
2022/01/18 07:36:26;;;;;;;36.30;21.75;;;5.60;99.90;;;;;;5014018;28;20026;-62
2022/01/18 07:38:52;;;;;;;36.35;22.23;;;5.80;99.90;;;;;;5009744;28;20026;-62
2022/01/18 07:41:18;;;;;;;40.88;22.95;;;5.70;99.90;;;;;;5011807;28;20021;-61
2022/01/18 07:43:44;;;;;;;43.10;23.05;;;5.60;99.90;;;;;;5011282;28;20294;-62
2022/01/18 07:46:09;;;;;;;42.60;22.58;;;5.60;99.90;;;;;;5014626;28;20041;-62
2022/01/18 07:48:35;;;;;;;57.85;25.35;;;5.60;99.90;;;;;;5015690;28;20030;-62
2022/01/18 07:51:01;;;;;;;52.30;24.58;;;5.40;99.90;;;;;;5005967;28;20442;-62
2022/01/18 07:53:26;;;;;;;72.15;25.90;;;5.50;99.90;;;;;;5017238;28;20410;-62
2022/01/18 07:55:52;;;;;;;53.20;25.25;;;5.40;99.90;;;;;;5016568;28;20021;-62
2022/01/18 07:58:19;;;;;;;70.05;26.42;;;5.40;99.90;;;;;;5024221;28;20056;-63
2022/01/18 08:00:47;;;;;;;96.75;29.25;;;5.30;99.90;;;;;;5024790;28;20115;-62
2022/01/18 08:03:13;;;;;;;77.95;28.25;;;5.50;99.90;;;;;;5010056;28;20412;-62
2022/01/18 08:05:38;;;;;;;87.00;30.00;;;5.60;99.90;;;;;;5011374;28;20045;-62
2022/01/18 08:08:05;;;;;;;77.47;27.08;;;5.50;99.90;;;;;;5012236;28;20038;-62
2022/01/18 08:10:31;;;;;;;80.95;27.17;;;5.40;99.90;;;;;;5016908;28;20031;-62
2022/01/18 08:13:01;;;;;;;104.40;29.15;;;5.30;99.90;;;;;;5013121;28;20038;-62
2022/01/18 08:15:29;;;;;;;93.88;30.05;;;5.20;99.90;;;;;;5012360;28;20032;-62
2022/01/18 08:17:55;;;;;;;152.52;48.55;;;5.20;99.90;;;;;;5012166;28;20372;-62
2022/01/18 08:20:21;;;;;;;147.80;49.30;;;5.20;99.90;;;;;;5015505;28;20029;-62
2022/01/18 08:22:47;;;;;;;103.25;36.75;;;5.30;99.90;;;;;;5010025;28;20032;-62
2022/01/18 08:25:15;;;;;;;97.65;36.22;;;5.30;99.90;;;;;;5017208;28;20033;-62
2022/01/18 08:27:42;;;;;;;104.75;36.83;;;5.20;99.90;;;;;;5016579;28;20487;-62
2022/01/18 08:30:10;;;;;;;84.90;31.40;;;5.10;99.90;;;;;;5025357;28;20508;-62
2022/01/18 08:32:37;;;;;;;115.88;33.38;;;5.20;99.90;;;;;;5016841;28;20029;-60
2022/01/18 08:35:04;;;;;;;127.00;35.00;;;5.20;99.90;;;;;;5017763;28;20462;-61
2022/01/18 08:37:30;;;;;;;106.65;36.97;;;5.30;99.90;;;;;;5012309;28;20022;-62
2022/01/18 08:39:56;;;;;;;109.60;36.03;;;5.50;99.90;;;;;;5019164;28;20038;-61
2022/01/18 08:42:22;;;;;;;111.15;36.17;;;5.60;99.90;;;;;;5019037;28;20021;-61
2022/01/18 08:44:47;;;;;;;133.07;36.25;;;5.50;99.90;;;;;;5013552;28;20112;-61
2022/01/18 08:47:16;;;;;;;96.88;35.08;;;5.50;99.90;;;;;;5015959;28;20033;-61
2022/01/18 08:49:42;;;;;;;149.30;33.70;;;5.50;99.90;;;;;;5013150;28;20014;-61
2022/01/18 08:52:08;;;;;;;96.00;33.75;;;5.50;99.90;;;;;;5015262;28;20037;-61
2022/01/18 08:54:34;;;;;;;96.03;33.45;;;5.60;99.90;;;;;;5015548;28;20061;-61
2022/01/18 08:57:03;;;;;;;92.88;32.55;;;5.60;99.90;;;;;;5015442;28;20483;-61
2022/01/18 08:59:30;;;;;;;103.32;32.53;;;5.70;99.90;;;;;;5028992;28;20438;-61
2022/01/18 09:01:58;;;;;;;101.10;33.42;;;5.70;99.90;;;;;;5021167;28;20029;-61
2022/01/18 09:04:24;;;;;;;107.00;32.03;;;5.70;99.90;;;;;;5018363;28;21076;-61
2022/01/18 09:06:52;;;;;;;132.50;32.65;;;5.70;99.90;;;;;;5023499;28;20021;-61
2022/01/18 09:09:19;;;;;;;90.40;31.33;;;5.80;99.90;;;;;;5021182;28;20049;-61
2022/01/18 09:11:46;;;;;;;129.93;32.75;;;5.80;99.90;;;;;;5011341;28;20034;-61
2022/01/18 09:14:12;;;;;;;126.65;34.47;;;5.70;99.90;;;;;;5011838;28;20316;-61
2022/01/18 09:16:38;;;;;;;98.80;35.03;;;5.80;99.90;;;;;;5016220;28;20041;-61
2022/01/18 09:19:04;;;;;;;97.07;34.63;;;5.90;99.90;;;;;;5018470;28;20035;-60
2022/01/18 09:21:33;;;;;;;97.05;35.13;;;6.10;99.90;;;;;;5017792;28;20025;-60
2022/01/18 09:24:00;;;;;;;91.90;33.40;;;6.20;99.90;;;;;;5022615;28;20427;-60
2022/01/18 09:26:26;;;;;;;108.75;32.63;;;6.30;99.90;;;;;;5017669;28;20029;-61
2022/01/18 09:28:52;;;;;;;89.15;30.73;;;6.30;99.90;;;;;;5019427;28;20114;-61
2022/01/18 09:31:19;;;;;;;89.32;31.15;;;6.40;99.90;;;;;;5021745;28;20074;-60
2022/01/18 09:33:45;;;;;;;127.32;32.65;;;6.30;99.90;;;;;;5023101;28;20033;-60
2022/01/18 09:36:11;;;;;;;124.93;29.60;;;6.20;99.90;;;;;;5022770;28;20025;-61
2022/01/18 09:38:36;;;;;;;110.07;30.33;;;6.20;99.90;;;;;;5019335;28;20033;-61
2022/01/18 09:41:09;;;;;;;98.10;28.65;;;6.10;99.90;;;;;;5017574;28;20037;-61
2022/01/18 09:43:38;;;;;;;91.32;26.17;;;6.20;99.90;;;;;;5019168;28;20053;-60
2022/01/18 09:46:04;;;;;;;99.13;27.98;;;6.20;99.90;;;;;;5024041;28;20036;-61
2022/01/18 09:48:30;;;;;;;104.07;28.42;;;6.20;99.90;;;;;;5021985;28;20042;-60
2022/01/18 09:50:58;;;;;;;106.72;30.80;;;6.30;99.90;;;;;;5020383;28;20044;-60
2022/01/18 09:53:25;;;;;;;99.15;31.08;;;6.50;99.90;;;;;;5019947;28;20038;-61
2022/01/18 09:55:53;;;;;;;169.15;30.38;;;6.60;99.90;;;;;;5021511;28;20017;-60
2022/01/18 09:58:18;;;;;;;170.68;30.38;;;6.70;99.90;;;;;;5023758;28;20029;-60
2022/01/18 10:00:44;;;;;;;123.00;32.08;;;6.70;99.90;;;;;;5029270;28;20029;-60
2022/01/18 10:03:32;;;;;;;143.27;31.40;;;6.70;99.90;;;;;;5026242;28;20033;-61
2022/01/18 10:05:58;;;;;;;159.65;29.52;;;6.60;99.90;;;;;;5020847;28;20034;-60
2022/01/18 10:08:23;;;;;;;153.98;29.58;;;6.60;99.90;;;;;;5022502;28;20037;-61
2022/01/18 10:10:59;;;;;;;177.00;30.58;;;6.60;99.90;;;;;;5021643;28;20033;-60
2022/01/18 10:13:30;;;;;;;130.05;31.20;;;6.70;99.90;;;;;;5023135;28;20037;-61
2022/01/18 10:16:21;;;;;;;139.15;30.83;;;6.70;99.90;;;;;;5023974;28;20398;-61
2022/01/18 10:18:52;;;;;;;125.95;29.95;;;6.60;99.90;;;;;;5015658;28;20041;-60
2022/01/18 10:21:31;;;;;;;204.93;30.37;;;6.70;99.90;;;;;;5016485;28;20064;-60
2022/01/18 10:24:22;;;;;;;112.18;26.52;;;6.80;99.90;;;;;;5015939;28;20052;-60
2022/01/18 10:26:51;;;;;;;108.18;27.67;;;7.00;99.90;;;;;;5027884;28;20029;-61
2022/01/18 10:29:20;;;;;;;122.80;27.95;;;6.70;99.90;;;;;;5029115;28;20560;-61
2022/01/18 10:37:07;;;;;;;117.38;30.02;;;6.50;99.90;;;;;;5022860;28;20052;-61
2022/01/18 10:39:57;;;;;;;109.03;29.45;;;6.50;99.90;;;;;;5023346;28;20492;-61
2022/01/18 10:42:36;;;;;;;132.02;31.48;;;6.50;99.90;;;;;;5013505;28;20041;-60
2022/01/18 10:45:05;;;;;;;135.63;30.77;;;6.60;99.90;;;;;;5020429;28;20018;-61
2022/01/18 10:47:31;;;;;;;134.00;33.88;;;6.70;99.90;;;;;;5017950;28;20097;-61
2022/01/18 10:50:05;;;;;;;108.70;28.80;;;6.70;99.90;;;;;;5027903;28;20021;-61
2022/01/18 10:52:31;;;;;;;117.85;31.48;;;6.90;99.90;;;;;;5020260;28;20052;-61
2022/01/18 10:54:58;;;;;;;119.03;31.80;;;6.90;99.90;;;;;;5016499;28;20022;-61
2022/01/18 10:57:43;;;;;;;115.82;31.33;;;7.10;99.90;;;;;;5018979;28;20486;-61
2022/01/18 11:00:17;;;;;;;119.32;30.33;;;7.20;99.90;;;;;;5021269;28;20093;-61
2022/01/18 11:02:45;;;;;;;111.00;31.05;;;7.30;99.90;;;;;;5018528;28;20063;-61
2022/01/18 11:05:26;;;;;;;99.53;29.25;;;7.50;99.90;;;;;;5021153;28;20079;-61
2022/01/18 11:07:53;;;;;;;88.97;27.13;;;7.60;99.90;;;;;;5018116;28;20104;-61
2022/01/18 11:10:22;;;;;;;98.57;25.35;;;7.70;99.90;;;;;;5011070;28;20038;-61
2022/01/18 11:13:02;;;;;;;110.38;28.77;;;7.60;99.90;;;;;;5013285;28;20394;-61
2022/01/18 11:15:29;;;;;;;99.00;27.25;;;7.80;99.90;;;;;;5014950;28;20026;-61
2022/01/18 11:18:02;;;;;;;96.60;27.13;;;7.80;99.90;;;;;;5022391;28;20089;-61
2022/01/18 11:20:30;;;;;;;98.38;26.95;;;8.00;99.90;;;;;;5012783;28;20083;-61
2022/01/18 11:22:57;;;;;;;90.18;25.75;;;8.30;99.90;;;;;;5017915;28;20030;-62
2022/01/18 11:25:23;;;;;;;93.07;27.63;;;8.60;99.90;;;;;;5014920;28;20033;-62
2022/01/18 11:27:51;;;;;;;83.68;27.13;;;8.70;99.90;;;;;;5019928;28;20048;-61
2022/01/18 11:30:24;;;;;;;83.70;25.85;;;8.90;99.90;;;;;;5014156;28;20026;-61
2022/01/18 11:32:51;;;;;;;81.60;26.58;;;8.90;99.90;;;;;;5012496;28;20022;-61
2022/01/18 11:35:37;;;;;;;96.65;28.95;;;9.10;99.90;;;;;;5012843;28;20037;-61
2022/01/18 11:38:11;;;;;;;84.05;28.75;;;9.10;99.90;;;;;;5020457;28;20348;-61
2022/01/18 11:40:52;;;;;;;85.55;29.10;;;8.80;99.90;;;;;;5022196;28;20049;-61
2022/01/18 11:43:45;;;;;;;87.25;29.60;;;8.80;99.90;;;;;;5023424;28;20033;-61
2022/01/18 11:46:28;;;;;;;86.57;30.70;;;8.90;99.90;;;;;;5021668;28;20578;-61
2022/01/18 11:49:05;;;;;;;86.57;28.20;;;9.10;99.90;;;;;;5024609;28;20041;-61
2022/01/18 11:51:38;;;;;;;80.85;33.38;;;9.20;99.90;;;;;;5016005;28;20030;-61
2022/01/18 11:54:57;;;;;;;82.80;30.88;;;9.40;99.90;;;;;;5016421;28;20120;-62
2022/01/18 11:57:23;;;;;;;76.90;30.63;;;9.20;99.90;;;;;;5012724;28;20037;-61
2022/01/18 12:00:04;;;;;;;85.18;32.67;;;9.00;99.90;;;;;;5010656;28;20029;-61
2022/01/18 12:02:43;;;;;;;78.50;31.33;;;8.70;99.90;;;;;;5018879;28;20359;-61
2022/01/18 12:05:14;;;;;;;101.22;35.10;;;8.40;99.90;;;;;;5014259;28;20109;-61
2022/01/18 12:07:42;;;;;;;89.68;33.15;;;8.50;99.90;;;;;;5016293;28;20030;-61
2022/01/18 12:10:38;;;;;;;75.95;30.45;;;8.60;99.90;;;;;;5020156;28;20025;-61
2022/01/18 12:13:11;;;;;;;74.82;31.40;;;8.50;99.90;;;;;;5015637;28;20133;-60
2022/01/18 12:15:38;;;;;;;88.00;33.63;;;8.40;99.90;;;;;;5011676;28;20028;-61
2022/01/18 12:18:14;;;;;;;92.30;34.63;;;8.40;99.90;;;;;;5020081;28;20113;-61
2022/01/18 12:20:42;;;;;;;93.25;33.40;;;8.40;99.90;;;;;;5030100;28;20033;-61
2022/01/18 12:23:13;;;;;;;88.35;31.95;;;8.50;99.90;;;;;;5016499;28;20024;-61
2022/01/18 12:26:10;;;;;;;81.43;30.45;;;8.50;99.90;;;;;;5016102;28;20030;-61
2022/01/18 12:34:32;;;;;;;85.10;33.35;;;8.90;99.90;;;;;;4998993;28;20045;-61
2022/01/18 12:37:11;;;;;;;95.40;33.03;;;9.20;99.90;;;;;;5013940;28;20034;-61
2022/01/18 12:39:57;;;;;;;93.65;34.20;;;8.90;99.90;;;;;;5011659;28;20482;-61
2022/01/18 12:45:20;;;;;;;98.22;33.15;;;8.80;99.90;;;;;;5014995;28;20053;-61
2022/01/18 12:47:53;;;;;;;83.85;32.08;;;8.90;99.90;;;;;;5015359;28;20028;-61
2022/01/18 12:50:26;;;;;;;80.63;32.65;;;9.00;99.90;;;;;;5015459;28;20063;-61
2022/01/18 12:53:17;;;;;;;86.25;33.53;;;9.20;99.90;;;;;;5017861;28;20025;-61
2022/01/18 12:55:55;;;;;;;91.00;35.55;;;9.30;99.90;;;;;;5014221;28;20119;-61
2022/01/18 12:58:30;;;;;;;91.78;34.80;;;9.60;99.90;;;;;;5007974;28;20546;-61
2022/01/18 13:00:57;;;;;;;88.53;32.92;;;10.00;99.90;;;;;;5008013;28;20029;-61
2022/01/18 13:03:27;;;;;;;97.63;36.00;;;10.00;99.90;;;;;;5012822;28;20021;-61
2022/01/18 13:06:01;;;;;;;94.05;33.80;;;10.20;99.90;;;;;;5015253;28;20326;-61
2022/01/18 13:08:40;;;;;;;101.22;36.00;;;10.00;99.90;;;;;;5017177;28;20022;-61
2022/01/18 13:11:06;;;;;;;98.70;32.50;;;10.00;99.90;;;;;;5017486;28;20506;-61
2022/01/18 13:13:33;;;;;;;94.30;33.80;;;9.90;99.90;;;;;;5015469;28;20198;-61
2022/01/18 13:26:48;;;;;;;73.22;29.80;;;9.70;99.90;;;;;;5010760;28;20026;-62
2022/01/18 13:29:20;;;;;;;78.80;30.75;;;9.60;99.90;;;;;;5015743;28;20045;-61
2022/01/18 13:32:20;;;;;;;77.50;30.48;;;9.60;99.90;;;;;;5024694;28;20038;-61
2022/01/18 13:34:51;;;;;;;84.65;33.58;;;9.80;99.90;;;;;;5024443;28;20038;-60
2022/01/18 13:37:19;;;;;;;84.10;31.38;;;9.70;99.90;;;;;;5011815;28;20112;-61
2022/01/18 13:39:53;;;;;;;76.65;29.90;;;9.70;99.90;;;;;;5017672;28;20483;-61
2022/01/18 13:42:28;;;;;;;84.00;29.75;;;9.60;99.90;;;;;;5015574;28;20036;-61
2022/01/18 13:45:12;;;;;;;81.70;32.17;;;9.60;99.90;;;;;;5023992;28;20047;-61
2022/01/18 13:47:50;;;;;;;86.05;31.40;;;9.70;99.90;;;;;;5024821;28;20060;-61
2022/01/18 13:50:36;;;;;;;85.45;30.52;;;9.40;99.90;;;;;;5022961;28;20049;-61
2022/01/18 13:53:09;;;;;;;78.45;30.45;;;9.50;99.90;;;;;;5023096;28;20859;-61
2022/01/18 13:55:37;;;;;;;81.95;31.13;;;9.60;99.90;;;;;;5014868;28;20159;-61
2022/01/18 13:58:04;;;;;;;75.13;29.50;;;9.60;99.90;;;;;;5021929;28;20036;-61
2022/01/18 14:00:31;;;;;;;74.85;30.40;;;9.60;99.90;;;;;;5028396;28;20030;-61
2022/01/18 14:02:56;;;;;;;76.47;30.55;;;9.40;99.90;;;;;;5016229;28;20775;-61
2022/01/18 14:05:24;;;;;;;76.50;30.80;;;9.50;99.90;;;;;;5028435;28;20025;-61
2022/01/18 14:08:11;;;;;;;89.57;31.52;;;9.80;99.90;;;;;;5025887;28;20040;-62